Terminal Aerodrome Forecast
Issued by NWS Wilmington, OH

Home | Current Version | Previous Version | Text Only | Print | Product List | Glossary On
Versions: 1 2 3 4 5 6 7 8 9 10 11 12 13 14 15 16 17 18 19 20 21 22
000
FTUS41 KILN 050200 AAA
TAFCVG
TAF AMD
KCVG 050225Z 0502/0606 20004KT P6SM SCT070 BKN150
     FM051500 23008KT P6SM SCT070
     FM060000 21003KT P6SM SKC=

USA.gov is the U.S. government's official web portal to all federal, state and local government web resources and services.